createdAt,value
2023-04-15T00:02:20.579Z,95.27
2023-04-15T00:04:54.303Z,95.54
2023-04-15T00:07:24.759Z,97.17
2023-04-15T00:09:58.806Z,97.45
2023-04-15T00:12:29.877Z,96.29
2023-04-15T00:14:58.918Z,95.27
2023-04-15T00:17:32.974Z,95.86
2023-04-15T00:20:03.148Z,95.00
2023-04-15T00:22:33.611Z,94.64
2023-04-15T00:25:02.237Z,94.95
2023-04-15T00:27:32.446Z,95.26
2023-04-15T00:30:02.913Z,95.26
2023-04-15T00:32:31.277Z,95.59
2023-04-15T00:35:04.949Z,95.89
2023-04-15T00:37:35.212Z,96.08
2023-04-15T00:40:12.955Z,97.43
2023-04-15T00:42:45.896Z,97.43
2023-04-15T00:45:24.198Z,97.34
2023-04-15T00:48:09.862Z,97.26
2023-04-15T00:50:48.330Z,97.14
2023-04-15T00:53:21.722Z,96.04
2023-04-15T00:56:07.657Z,97.14
2023-04-15T00:58:46.220Z,96.82
2023-04-15T01:01:15.468Z,96.01
2023-04-15T01:03:43.793Z,95.99
2023-04-15T01:06:12.686Z,96.98
2023-04-15T01:08:42.917Z,96.32
2023-04-15T01:11:13.766Z,95.53
2023-04-15T01:13:42.631Z,95.19
2023-04-15T01:16:10.922Z,95.55
2023-04-15T01:18:39.461Z,96.21
2023-04-15T01:21:08.639Z,96.19
2023-04-15T01:23:38.758Z,95.96
2023-04-15T01:26:09.377Z,95.62
2023-04-15T01:28:38.342Z,95.68
2023-04-15T01:31:08.909Z,96.18
2023-04-15T01:33:39.328Z,96.36
2023-04-15T01:36:10.482Z,96.77
2023-04-15T01:38:39.174Z,97.36
2023-04-15T01:41:08.721Z,97.92
2023-04-15T01:43:37.815Z,97.20
2023-04-15T01:46:06.306Z,97.02
2023-04-15T01:48:34.620Z,97.19
2023-04-15T01:51:05.416Z,96.31
2023-04-15T01:53:34.286Z,96.93
2023-04-15T01:56:03.432Z,96.39
2023-04-15T01:58:33.700Z,96.29
2023-04-15T02:01:03.265Z,97.21
2023-04-15T02:03:33.257Z,97.36
2023-04-15T02:06:01.289Z,97.91
2023-04-15T02:08:30.136Z,97.92
2023-04-15T02:10:58.090Z,97.83
2023-04-15T02:13:28.497Z,98.55
2023-04-15T02:16:00.572Z,98.77
2023-04-15T02:18:29.397Z,98.79
2023-04-15T02:20:58.690Z,99.17
2023-04-15T02:23:27.032Z,99.34
2023-04-15T02:25:55.644Z,99.46
2023-04-15T02:28:23.989Z,99.99
2023-04-15T02:30:53.465Z,99.99
2023-04-15T02:33:24.587Z,99.55
2023-04-15T02:35:53.282Z,99.42
2023-04-15T02:38:21.378Z,99.86
2023-04-15T02:40:52.085Z,99.99
2023-04-15T02:43:20.085Z,99.99
2023-04-15T02:45:48.469Z,99.99
2023-04-15T02:48:19.903Z,99.99
2023-04-15T02:50:49.354Z,99.99
2023-04-15T02:53:20.376Z,99.99
2023-04-15T02:55:48.297Z,99.99
2023-04-15T02:58:16.952Z,99.91
2023-04-15T03:00:44.940Z,99.77
2023-04-15T03:03:15.324Z,99.99
2023-04-15T03:05:44.616Z,99.92
2023-04-15T03:08:15.030Z,99.97
2023-04-15T03:10:46.172Z,99.99
2023-04-15T03:13:14.748Z,99.99
2023-04-15T03:15:43.217Z,99.99
2023-04-15T03:18:12.809Z,99.99
2023-04-15T03:20:41.981Z,99.99
2023-04-15T03:23:11.333Z,99.99
2023-04-15T03:25:42.266Z,99.99
2023-04-15T03:28:10.545Z,99.99
2023-04-15T03:30:41.087Z,99.99
2023-04-15T03:33:10.490Z,99.99
2023-04-15T03:35:40.603Z,99.99
2023-04-15T03:38:09.056Z,99.95
2023-04-15T03:40:38.969Z,99.99
2023-04-15T03:43:08.332Z,99.99
2023-04-15T03:45:37.210Z,99.99
2023-04-15T03:48:17.111Z,99.99
2023-04-15T03:50:47.238Z,99.99
2023-04-15T03:53:16.680Z,99.86
2023-04-15T03:55:46.018Z,99.31
2023-04-15T03:58:15.516Z,99.96
2023-04-15T04:00:46.722Z,99.99
2023-04-15T04:03:16.203Z,99.99
2023-04-15T04:05:45.522Z,99.99
2023-04-15T04:08:17.810Z,99.99
2023-04-15T04:10:46.185Z,99.99
2023-04-15T04:13:15.648Z,99.99
2023-04-15T04:15:46.927Z,99.99
2023-04-15T04:18:15.050Z,99.99
2023-04-15T04:20:43.328Z,99.99
2023-04-15T04:23:14.632Z,99.99
2023-04-15T04:25:46.322Z,99.99
2023-04-15T04:28:18.036Z,99.99
2023-04-15T04:30:49.272Z,99.99
2023-04-15T04:36:10.669Z,99.99
2023-04-15T04:38:48.364Z,99.99
2023-04-15T04:41:16.766Z,99.99
2023-04-15T04:43:47.860Z,99.99
2023-04-15T04:46:16.126Z,99.99
2023-04-15T04:48:47.256Z,99.99
2023-04-15T04:51:16.658Z,99.99
2023-04-15T04:53:44.854Z,99.99
2023-04-15T04:56:15.983Z,99.99
2023-04-15T04:58:47.493Z,99.99
2023-04-15T05:01:24.192Z,99.99
2023-04-15T05:03:53.900Z,99.99
2023-04-15T05:06:24.214Z,99.99
2023-04-15T05:09:07.413Z,99.99
2023-04-15T05:11:35.720Z,99.99
2023-04-15T05:14:05.893Z,99.99
2023-04-15T05:16:38.922Z,99.99
2023-04-15T05:19:12.158Z,99.99
2023-04-15T05:21:40.263Z,99.99
2023-04-15T05:24:08.368Z,99.99
2023-04-15T05:26:38.283Z,99.99
2023-04-15T05:29:09.303Z,99.99
2023-04-15T05:31:39.430Z,99.99
2023-04-15T05:34:13.296Z,99.99
2023-04-15T05:36:47.462Z,99.99
2023-04-15T05:39:17.329Z,99.66
2023-04-15T05:41:49.930Z,99.66
2023-04-15T05:44:19.546Z,99.55
2023-04-15T05:46:53.215Z,99.21
2023-04-15T05:49:21.434Z,98.68
2023-04-15T05:51:49.550Z,99.23
2023-04-15T05:54:20.493Z,99.53
2023-04-15T05:56:51.064Z,99.66
2023-04-15T05:59:22.738Z,98.94
2023-04-15T06:01:58.021Z,98.80
2023-04-15T06:04:30.358Z,98.46
2023-04-15T06:07:06.750Z,98.47
2023-04-15T06:09:41.042Z,98.35
2023-04-15T06:12:12.425Z,97.87
2023-04-15T06:14:53.112Z,98.77
2023-04-15T06:17:23.199Z,98.62
2023-04-15T06:19:56.506Z,97.99
2023-04-15T06:22:27.410Z,98.08
2023-04-15T06:24:57.386Z,97.89
2023-04-15T06:27:32.408Z,97.45
2023-04-15T06:30:11.461Z,97.44
2023-04-15T06:32:42.871Z,97.76
2023-04-15T06:35:13.880Z,97.47
2023-04-15T06:37:45.574Z,97.86
2023-04-15T06:40:16.753Z,97.79
2023-04-15T06:42:47.306Z,97.99
2023-04-15T06:45:18.570Z,98.17
2023-04-15T06:47:47.965Z,98.88
2023-04-15T06:50:20.602Z,98.50
2023-04-15T06:52:55.969Z,99.57
2023-04-15T06:55:31.981Z,99.19
2023-04-15T06:58:01.616Z,99.53
2023-04-15T07:00:33.755Z,99.85
2023-04-15T07:03:05.876Z,99.97
2023-04-15T07:05:37.101Z,99.99
2023-04-15T07:08:07.797Z,99.99
2023-04-15T07:10:44.407Z,99.99
2023-04-15T07:13:14.048Z,99.99
2023-04-15T07:15:43.407Z,99.99
2023-04-15T07:18:11.957Z,99.99
2023-04-15T07:20:55.232Z,99.99
2023-04-15T07:23:24.742Z,99.99
2023-04-15T07:26:00.969Z,99.99
2023-04-15T07:28:34.324Z,99.99
2023-04-15T07:31:09.924Z,99.99
2023-04-15T07:33:41.247Z,99.99
2023-04-15T07:36:12.563Z,99.99
2023-04-15T07:38:43.294Z,99.99
2023-04-15T07:41:26.344Z,99.99
2023-04-15T07:43:57.382Z,99.99
2023-04-15T07:46:29.178Z,99.99
2023-04-15T07:48:57.513Z,99.99
2023-04-15T07:51:27.228Z,99.99
2023-04-15T07:54:07.006Z,99.99
2023-04-15T07:56:40.074Z,99.99
2023-04-15T07:59:19.894Z,99.99
2023-04-15T08:01:52.698Z,99.99
2023-04-15T08:04:23.500Z,99.99
2023-04-15T08:06:53.576Z,99.99
2023-04-15T08:09:22.558Z,99.99
2023-04-15T08:11:55.377Z,99.99
2023-04-15T08:14:23.480Z,99.99
2023-04-15T08:16:56.652Z,99.99
2023-04-15T08:19:24.740Z,99.99
2023-04-15T08:21:52.827Z,99.99
2023-04-15T08:24:22.107Z,99.99
2023-04-15T08:26:52.240Z,99.99
2023-04-15T08:29:23.209Z,99.99
2023-04-15T08:31:54.075Z,99.99
2023-04-15T08:34:25.608Z,99.99
2023-04-15T08:36:53.744Z,99.99
2023-04-15T08:39:22.566Z,99.99
2023-04-15T08:41:57.182Z,99.99
2023-04-15T08:44:26.141Z,99.99
2023-04-15T08:46:57.890Z,99.99
2023-04-15T08:49:28.572Z,99.99
2023-04-15T08:51:59.197Z,99.99
2023-04-15T08:54:28.228Z,99.99
2023-04-15T08:56:59.012Z,99.99
2023-04-15T08:59:27.847Z,99.99
2023-04-15T09:01:58.427Z,99.99
2023-04-15T09:04:26.828Z,99.99
2023-04-15T09:06:55.171Z,99.99
2023-04-15T09:09:23.214Z,99.99
2023-04-15T09:11:51.627Z,99.99
2023-04-15T09:14:20.546Z,99.99
2023-04-15T09:17:00.859Z,99.99
2023-04-15T09:19:30.466Z,99.99
2023-04-15T09:21:59.660Z,99.99
2023-04-15T09:24:38.827Z,99.99
2023-04-15T09:27:07.260Z,99.99
2023-04-15T09:29:37.096Z,99.99
2023-04-15T09:32:15.296Z,99.99
2023-04-15T09:34:44.759Z,99.99
2023-04-15T09:37:31.232Z,99.99
2023-04-15T09:40:00.964Z,99.99
2023-04-15T09:42:29.634Z,99.99
2023-04-15T09:44:57.957Z,99.99
2023-04-15T09:47:32.828Z,99.99
2023-04-15T09:50:02.955Z,99.99
2023-04-15T09:52:31.172Z,99.99
2023-04-15T09:55:00.145Z,99.99
2023-04-15T09:57:39.073Z,99.99
2023-04-15T10:00:12.769Z,99.99
2023-04-15T10:02:49.918Z,99.99
2023-04-15T10:05:33.886Z,99.99
2023-04-15T10:08:12.764Z,99.99
2023-04-15T10:19:23.958Z,99.99
2023-04-15T10:21:55.496Z,99.99
2023-04-15T10:24:29.203Z,99.99
2023-04-15T10:27:11.039Z,99.99
2023-04-15T10:30:32.445Z,99.99
2023-04-15T10:33:04.949Z,99.99
2023-04-15T10:36:05.226Z,99.99
2023-04-15T10:38:47.180Z,99.99
2023-04-15T10:50:02.004Z,99.99
2023-04-15T10:53:40.916Z,99.99
2023-04-15T10:57:02.668Z,99.99
2023-04-15T10:59:31.743Z,99.99
2023-04-15T11:02:34.610Z,99.99
2023-04-15T11:23:58.263Z,99.99
2023-04-15T11:26:27.779Z,99.99
2023-04-15T11:28:56.124Z,99.99
2023-04-15T11:31:24.490Z,99.99
2023-04-15T11:33:56.969Z,99.99
2023-04-15T11:36:27.660Z,99.99
2023-04-15T11:38:57.132Z,99.99
2023-04-15T11:41:25.925Z,99.99
2023-04-15T11:43:54.763Z,99.99
2023-04-15T11:46:23.041Z,99.99
2023-04-15T11:48:51.150Z,99.99
2023-04-15T11:51:20.930Z,99.99
2023-04-15T11:53:50.501Z,99.99
2023-04-15T11:56:21.527Z,99.99
2023-04-15T11:58:50.941Z,99.99
2023-04-15T12:01:19.439Z,99.99
2023-04-15T12:03:49.242Z,99.99
2023-04-15T12:06:19.624Z,99.99
2023-04-15T12:09:12.329Z,99.99
2023-04-15T12:11:44.394Z,99.99
2023-04-15T12:14:23.558Z,99.99
2023-04-15T12:16:58.417Z,99.99
2023-04-15T12:19:28.722Z,99.99
2023-04-15T12:22:01.002Z,99.99
2023-04-15T12:24:33.434Z,99.99
2023-04-15T12:27:05.642Z,99.99
2023-04-15T12:29:35.782Z,99.99
2023-04-15T12:32:07.752Z,99.99
2023-04-15T12:34:37.491Z,99.99
2023-04-15T12:37:07.158Z,99.99
2023-04-15T12:39:38.139Z,99.99
2023-04-15T12:42:08.350Z,99.99
2023-04-15T12:44:37.723Z,99.99
2023-04-15T12:47:06.021Z,99.99
2023-04-15T12:49:34.712Z,99.99
2023-04-15T12:52:03.943Z,99.99
2023-04-15T12:54:33.012Z,99.99
2023-04-15T12:57:01.359Z,99.99
2023-04-15T12:59:31.272Z,99.99
2023-04-15T13:02:00.830Z,99.99
2023-04-15T13:04:31.493Z,99.99
2023-04-15T13:07:00.421Z,99.99
2023-04-15T13:09:28.455Z,99.99
2023-04-15T13:12:01.387Z,99.99
2023-04-15T13:14:31.215Z,99.99
2023-04-15T13:16:59.284Z,99.99
2023-04-15T13:19:28.142Z,99.99
2023-04-15T13:21:56.278Z,99.99
2023-04-15T13:24:24.259Z,99.99
2023-04-15T13:26:54.264Z,99.99
2023-04-15T13:29:22.288Z,99.99
2023-04-15T13:31:52.934Z,99.99
2023-04-15T13:34:21.050Z,99.99
2023-04-15T13:36:49.056Z,99.99
2023-04-15T13:39:17.432Z,99.99
2023-04-15T13:41:46.431Z,99.99
2023-04-15T13:44:14.642Z,99.99
2023-04-15T13:46:43.095Z,99.99
2023-04-15T13:49:12.536Z,99.99
2023-04-15T13:51:40.856Z,99.99
2023-04-15T13:54:09.086Z,99.99
2023-04-15T13:56:37.335Z,99.99
2023-04-15T13:59:06.653Z,99.99
2023-04-15T14:01:36.021Z,99.99
2023-04-15T14:04:04.762Z,99.99
2023-04-15T14:06:34.568Z,99.99
2023-04-15T14:09:02.740Z,99.99
2023-04-15T14:11:32.554Z,99.99
2023-04-15T14:14:00.453Z,99.99
2023-04-15T14:16:28.484Z,99.99
2023-04-15T14:18:56.702Z,99.99
2023-04-15T14:21:24.704Z,99.99
2023-04-15T14:23:54.033Z,99.99
2023-04-15T14:26:22.614Z,99.99
2023-04-15T14:28:50.809Z,99.99
2023-04-15T14:31:20.403Z,99.99
2023-04-15T14:33:48.441Z,99.99
2023-04-15T14:36:16.961Z,99.99
2023-04-15T14:38:46.494Z,99.99
2023-04-15T14:41:17.564Z,99.99
2023-04-15T14:43:46.144Z,99.99
2023-04-15T14:46:14.904Z,99.99
2023-04-15T14:48:44.028Z,99.99
2023-04-15T14:51:13.602Z,99.99
2023-04-15T14:53:41.694Z,99.99
2023-04-15T14:56:10.526Z,99.99
2023-04-15T14:58:40.597Z,99.99
2023-04-15T15:01:09.408Z,99.99
2023-04-15T15:03:38.980Z,99.99
2023-04-15T15:06:08.726Z,99.99
2023-04-15T15:08:37.195Z,99.99
2023-04-15T15:11:06.124Z,99.99
2023-04-15T15:13:35.232Z,99.99
2023-04-15T15:16:05.614Z,99.99
2023-04-15T15:18:34.857Z,99.99
2023-04-15T15:21:05.774Z,99.99
2023-04-15T15:23:35.776Z,99.99
2023-04-15T15:26:04.017Z,99.99
2023-04-15T15:28:33.763Z,99.99
2023-04-15T15:31:01.933Z,99.99
2023-04-15T15:33:33.420Z,99.99
2023-04-15T15:36:02.996Z,99.99
2023-04-15T15:38:31.676Z,99.99
2023-04-15T15:41:00.074Z,99.99
2023-04-15T15:43:28.544Z,99.99
2023-04-15T15:45:56.502Z,99.99
2023-04-15T15:48:26.063Z,99.99
2023-04-15T15:50:56.610Z,99.99
2023-04-15T15:53:26.483Z,99.99
2023-04-15T15:55:54.646Z,99.99
2023-04-15T15:58:24.389Z,99.99
2023-04-15T16:00:52.971Z,99.99
2023-04-15T16:03:21.100Z,99.99
2023-04-15T16:05:56.188Z,99.99
2023-04-15T16:08:24.311Z,99.99
2023-04-15T16:10:52.675Z,99.99
2023-04-15T16:13:21.559Z,99.99
2023-04-15T16:15:50.078Z,99.99
2023-04-15T16:18:18.525Z,99.99
2023-04-15T16:20:51.513Z,99.99
2023-04-15T16:23:21.193Z,99.99
2023-04-15T16:25:52.358Z,99.99
2023-04-15T16:28:26.285Z,99.99
2023-04-15T16:30:56.652Z,99.99
2023-04-15T16:33:24.609Z,99.99
2023-04-15T16:35:52.832Z,99.99
2023-04-15T16:38:22.668Z,99.99
2023-04-15T16:40:51.528Z,99.99
2023-04-15T16:43:20.108Z,99.99
2023-04-15T16:45:51.684Z,99.99
2023-04-15T16:48:21.814Z,99.99
2023-04-15T16:50:49.951Z,99.99
2023-04-15T16:53:18.737Z,99.99
2023-04-15T16:55:48.537Z,99.99
2023-04-15T16:58:16.519Z,99.99
2023-04-15T17:00:45.112Z,99.99
2023-04-15T17:03:13.612Z,99.99
2023-04-15T17:05:42.384Z,99.99
2023-04-15T17:08:10.905Z,99.99
2023-04-15T17:10:39.108Z,99.99
2023-04-15T17:13:08.637Z,99.99
2023-04-15T17:15:41.202Z,99.99
2023-04-15T17:18:10.768Z,99.99
2023-04-15T17:20:40.470Z,99.99
2023-04-15T17:23:08.495Z,99.99
2023-04-15T17:25:36.468Z,99.99
2023-04-15T17:28:05.352Z,99.99
2023-04-15T17:30:35.096Z,99.99
2023-04-15T17:33:03.707Z,99.99
2023-04-15T17:35:52.215Z,99.99
2023-04-15T17:38:20.120Z,99.99
2023-04-15T17:40:48.564Z,99.99
2023-04-15T17:43:16.996Z,99.99
2023-04-15T17:45:47.310Z,99.99
2023-04-15T17:48:15.940Z,99.99
2023-04-15T17:50:44.373Z,99.99
2023-04-15T17:53:12.340Z,99.99
2023-04-15T17:55:40.307Z,99.99
2023-04-15T17:58:09.307Z,99.99
2023-04-15T18:00:37.242Z,99.99
2023-04-15T18:03:08.894Z,99.99
2023-04-15T18:05:37.478Z,99.99
2023-04-15T18:08:06.961Z,99.99
2023-04-15T18:10:35.561Z,99.99
2023-04-15T18:13:04.124Z,99.99
2023-04-15T18:15:32.471Z,99.99
2023-04-15T18:18:00.920Z,99.99
2023-04-15T18:20:31.731Z,99.99
2023-04-15T18:22:59.681Z,99.99
2023-04-15T18:25:27.770Z,99.99
2023-04-15T18:27:56.717Z,99.99
2023-04-15T18:30:24.839Z,99.99
2023-04-15T18:32:52.867Z,99.99
2023-04-15T18:35:21.675Z,99.99
2023-04-15T18:37:51.128Z,99.99
2023-04-15T18:40:19.766Z,99.99
2023-04-15T18:42:48.365Z,99.99
2023-04-15T18:45:16.604Z,99.99
2023-04-15T18:47:44.578Z,99.99
2023-04-15T18:50:14.639Z,99.99
2023-04-15T18:52:42.588Z,99.99
2023-04-15T18:55:12.344Z,99.99
2023-04-15T18:57:43.007Z,99.99
2023-04-15T19:00:14.072Z,99.99
2023-04-15T19:02:43.362Z,99.99
2023-04-15T19:05:11.706Z,99.99
2023-04-15T19:07:43.845Z,99.99
2023-04-15T19:10:17.922Z,99.99
2023-04-15T19:12:47.337Z,99.99
2023-04-15T19:15:25.763Z,99.99
2023-04-15T19:17:56.617Z,99.99
2023-04-15T19:20:34.854Z,99.99
2023-04-15T19:23:05.262Z,99.99
2023-04-15T19:25:35.529Z,99.99
2023-04-15T19:28:03.508Z,99.99
2023-04-15T19:30:33.024Z,99.99
2023-04-15T19:33:01.669Z,99.99
2023-04-15T19:35:30.284Z,99.99
2023-04-15T19:37:58.354Z,99.99
2023-04-15T19:40:26.384Z,99.99
2023-04-15T19:42:56.978Z,99.99
2023-04-15T19:45:24.759Z,99.99
2023-04-15T19:47:54.505Z,99.99
2023-04-15T19:50:26.913Z,99.99
2023-04-15T19:52:55.037Z,99.99
2023-04-15T19:55:22.988Z,99.99
2023-04-15T19:57:52.267Z,99.99
2023-04-15T20:00:21.935Z,99.99
2023-04-15T20:02:50.672Z,99.99
2023-04-15T20:05:19.382Z,99.99
2023-04-15T20:07:48.799Z,99.99
2023-04-15T20:10:17.768Z,99.99
2023-04-15T20:12:50.108Z,99.99
2023-04-15T20:15:24.252Z,99.99
2023-04-15T20:17:52.448Z,99.99
2023-04-15T20:20:29.173Z,99.99
2023-04-15T20:22:59.122Z,99.99
2023-04-15T20:25:33.082Z,99.99
2023-04-15T20:28:01.339Z,99.99
2023-04-15T20:30:40.234Z,99.99
2023-04-15T20:33:10.534Z,99.99
2023-04-15T20:35:40.002Z,99.99
2023-04-15T20:38:08.332Z,99.99
2023-04-15T20:40:36.443Z,99.99
2023-04-15T20:43:04.367Z,99.99
2023-04-15T20:45:34.746Z,99.99
2023-04-15T20:48:02.707Z,99.99
2023-04-15T20:50:31.237Z,99.99
2023-04-15T20:53:00.322Z,99.99
2023-04-15T20:55:30.675Z,99.99
2023-04-15T20:58:00.937Z,99.99
2023-04-15T21:00:29.821Z,99.99
2023-04-15T21:02:59.197Z,99.99
2023-04-15T21:05:28.085Z,99.99
2023-04-15T21:07:56.029Z,99.99
2023-04-15T21:10:26.271Z,99.99
2023-04-15T21:12:55.765Z,99.99
2023-04-15T21:15:23.994Z,99.99
2023-04-15T21:17:54.272Z,99.99
2023-04-15T21:20:26.679Z,99.99
2023-04-15T21:22:54.901Z,99.99
2023-04-15T21:25:23.428Z,99.99
2023-04-15T21:27:51.521Z,99.99
2023-04-15T21:30:19.380Z,99.99
2023-04-15T21:32:48.433Z,99.99
2023-04-15T21:35:16.456Z,99.99
2023-04-15T21:37:47.507Z,99.99
2023-04-15T21:40:19.489Z,99.99
2023-04-15T21:42:48.881Z,99.99
2023-04-15T21:45:17.792Z,99.99
2023-04-15T21:48:00.513Z,99.99
2023-04-15T21:50:34.654Z,99.99
2023-04-15T21:53:04.469Z,99.99
2023-04-15T21:55:32.412Z,99.99
2023-04-15T21:58:00.426Z,99.99
2023-04-15T22:00:29.752Z,99.99
2023-04-15T22:03:04.232Z,99.99
2023-04-15T22:05:33.832Z,99.99
2023-04-15T22:08:04.733Z,99.99
2023-04-15T22:10:39.090Z,99.99
2023-04-15T22:13:11.071Z,99.99
2023-04-15T22:15:41.152Z,99.99
2023-04-15T22:18:08.910Z,99.99
2023-04-15T22:20:40.076Z,99.99
2023-04-15T22:23:12.274Z,99.99
2023-04-15T22:25:40.495Z,99.99
2023-04-15T22:28:17.116Z,99.99
2023-04-15T22:30:45.117Z,99.99
2023-04-15T22:33:13.240Z,99.99
2023-04-15T22:35:42.876Z,99.99
2023-04-15T22:38:12.469Z,99.99
2023-04-15T22:40:47.371Z,99.99
2023-04-15T22:43:18.538Z,99.99
2023-04-15T22:45:51.862Z,99.99
2023-04-15T22:48:22.888Z,99.99
2023-04-15T22:50:53.836Z,99.99
2023-04-15T22:53:23.272Z,99.99
2023-04-15T22:55:55.559Z,99.99
2023-04-15T22:58:25.268Z,99.99
2023-04-15T23:00:53.546Z,99.99
2023-04-15T23:03:24.512Z,99.99
2023-04-15T23:05:57.638Z,99.99
2023-04-15T23:08:30.723Z,99.99
2023-04-15T23:10:58.768Z,99.99
2023-04-15T23:13:31.658Z,99.99
2023-04-15T23:16:01.171Z,99.99
2023-04-15T23:18:31.315Z,99.99
2023-04-15T23:21:00.133Z,99.99
2023-04-15T23:23:30.064Z,99.99
2023-04-15T23:25:58.066Z,99.99
2023-04-15T23:28:31.294Z,99.99
2023-04-15T23:31:02.093Z,99.99
2023-04-15T23:33:30.188Z,99.99
2023-04-15T23:36:00.047Z,99.99
2023-04-15T23:38:32.096Z,99.99
2023-04-15T23:41:03.667Z,99.99
2023-04-15T23:43:34.100Z,99.99
2023-04-15T23:46:02.122Z,99.99
2023-04-15T23:48:30.812Z,99.99
2023-04-15T23:50:59.067Z,99.99
2023-04-15T23:53:27.379Z,99.99
2023-04-15T23:56:02.982Z,99.99
2023-04-15T23:58:33.991Z,99.99
